Time;durP1;ratioP1;P1;durP2;ratioP2;P2;SDS_P1;SDS_P2;PMS_P1;PMS_P2;Temp;Humidity;BMP_temperature;BMP_pressure;BME280_temperature;BME280_humidity;BME280_pressure;Samples;Min_cycle;Max_cycle;Signal;HPM_P1;HPM_P2
2021/01/30 00:01:40;;;;;;;19.85;12.10;;;6.20;99.90;;;;;;5081022;27;20113;-78
2021/01/30 00:04:05;;;;;;;17.85;10.77;;;6.10;99.90;;;;;;5094396;27;20485;-78
2021/01/30 00:06:31;;;;;;;14.63;9.43;;;6.10;99.90;;;;;;5121435;27;20023;-79
2021/01/30 00:08:56;;;;;;;21.05;12.60;;;6.10;99.90;;;;;;5086954;27;20031;-78
2021/01/30 00:11:22;;;;;;;13.52;8.57;;;6.10;99.90;;;;;;5073738;27;20031;-79
2021/01/30 00:13:47;;;;;;;13.88;8.43;;;6.00;99.80;;;;;;5106255;27;20035;-79
2021/01/30 00:16:14;;;;;;;17.80;10.25;;;5.90;99.90;;;;;;5102816;27;20027;-79
2021/01/30 00:18:39;;;;;;;18.20;10.10;;;6.00;99.90;;;;;;5088571;27;20032;-77
2021/01/30 00:21:05;;;;;;;18.88;12.00;;;5.70;99.70;;;;;;5094167;27;20390;-78
2021/01/30 00:23:30;;;;;;;15.40;9.35;;;5.70;99.50;;;;;;5105954;27;20034;-79
2021/01/30 00:25:56;;;;;;;19.17;11.45;;;5.80;99.80;;;;;;5089428;27;20071;-79
2021/01/30 00:28:21;;;;;;;20.23;12.30;;;5.70;99.60;;;;;;5092204;27;20042;-78
2021/01/30 00:30:47;;;;;;;16.30;10.65;;;5.60;99.70;;;;;;5084132;27;20046;-78
2021/01/30 00:33:12;;;;;;;17.77;10.20;;;5.60;99.90;;;;;;5095125;27;20471;-79
2021/01/30 00:35:38;;;;;;;18.30;10.57;;;5.60;99.70;;;;;;5088518;27;20038;-79
2021/01/30 00:38:04;;;;;;;19.80;12.00;;;5.60;99.60;;;;;;5087536;27;20068;-79
2021/01/30 00:40:30;;;;;;;26.50;11.45;;;5.50;99.70;;;;;;5088132;28;20028;-79
2021/01/30 00:42:55;;;;;;;23.10;12.52;;;5.50;99.90;;;;;;5107205;27;20075;-79
2021/01/30 00:45:22;;;;;;;21.95;13.15;;;5.50;99.70;;;;;;5069915;28;20491;-79
2021/01/30 00:47:48;;;;;;;21.75;14.45;;;5.20;99.70;;;;;;5095433;28;20028;-79
2021/01/30 00:50:14;;;;;;;22.98;14.25;;;5.10;99.80;;;;;;5089323;28;20031;-78
2021/01/30 00:52:42;;;;;;;25.50;15.15;;;4.80;99.90;;;;;;5098853;28;20061;-78
2021/01/30 00:55:09;;;;;;;22.65;12.88;;;4.70;99.90;;;;;;5087842;28;20141;-78
2021/01/30 00:57:34;;;;;;;21.45;11.60;;;4.60;99.80;;;;;;5095847;28;20506;-79
2021/01/30 01:00:00;;;;;;;20.58;10.27;;;4.60;99.80;;;;;;5103188;28;21694;-79
2021/01/30 01:02:25;;;;;;;17.92;10.90;;;4.70;99.90;;;;;;5065735;28;20058;-80
2021/01/30 01:04:51;;;;;;;17.35;9.65;;;4.70;99.60;;;;;;5029084;28;20071;-80
2021/01/30 01:07:17;;;;;;;15.13;9.65;;;4.70;99.60;;;;;;5028578;28;20539;-80
2021/01/30 01:09:42;;;;;;;15.32;8.27;;;4.70;99.70;;;;;;5098611;28;20039;-79
2021/01/30 01:12:08;;;;;;;19.75;10.07;;;4.70;99.70;;;;;;5076444;28;20117;-79
2021/01/30 01:14:33;;;;;;;16.38;10.05;;;4.60;99.40;;;;;;5082383;28;20455;-79
2021/01/30 01:16:59;;;;;;;17.63;10.45;;;4.50;99.70;;;;;;5103347;28;20035;-78
2021/01/30 01:19:24;;;;;;;17.02;9.35;;;4.50;99.90;;;;;;5100470;27;20050;-78
2021/01/30 01:21:51;;;;;;;15.02;8.80;;;4.30;99.40;;;;;;5106277;27;20050;-79
2021/01/30 01:24:17;;;;;;;19.67;10.38;;;4.30;99.90;;;;;;5094515;27;20478;-78
2021/01/30 01:26:46;;;;;;;18.33;13.30;;;4.30;99.90;;;;;;5108031;27;20051;-78
2021/01/30 01:29:15;;;;;;;18.63;9.65;;;4.20;99.60;;;;;;5106361;27;20482;-78
2021/01/30 01:31:40;;;;;;;17.27;10.00;;;4.10;99.90;;;;;;5092332;27;20055;-79
2021/01/30 01:34:06;;;;;;;19.33;11.02;;;4.10;99.80;;;;;;5091334;27;20059;-79
2021/01/30 01:36:31;;;;;;;16.88;10.18;;;4.10;99.70;;;;;;5074988;27;20448;-79
2021/01/30 01:38:57;;;;;;;14.43;8.55;;;4.20;99.80;;;;;;5091804;27;20047;-78
2021/01/30 01:41:22;;;;;;;19.08;11.35;;;4.20;99.60;;;;;;5106536;27;20505;-79
2021/01/30 01:43:50;;;;;;;17.83;9.82;;;4.20;99.60;;;;;;5090338;27;20553;-78
2021/01/30 01:46:33;;;;;;;20.08;11.85;;;4.10;99.40;;;;;;5090732;27;20133;-79
2021/01/30 01:49:01;;;;;;;16.95;9.60;;;4.00;99.50;;;;;;5104649;27;20051;-79
2021/01/30 01:51:40;;;;;;;17.15;11.07;;;3.90;99.90;;;;;;5093596;27;20039;-79
2021/01/30 01:54:08;;;;;;;16.17;11.07;;;3.70;99.90;;;;;;5107988;27;20031;-78
2021/01/30 01:56:34;;;;;;;15.13;11.45;;;3.70;99.80;;;;;;5076674;27;20512;-79
2021/01/30 01:59:06;;;;;;;18.00;11.70;;;3.60;99.90;;;;;;5092989;27;20035;-79
2021/01/30 02:01:33;;;;;;;15.60;11.23;;;3.50;99.80;;;;;;5081232;27;20027;-78
2021/01/30 02:03:58;;;;;;;14.18;11.55;;;3.30;99.60;;;;;;5088291;27;20035;-78
2021/01/30 02:06:24;;;;;;;15.15;12.30;;;3.00;99.50;;;;;;5105934;27;20031;-78
2021/01/30 02:08:50;;;;;;;17.65;9.85;;;2.90;99.70;;;;;;5109446;27;20023;-79
2021/01/30 02:11:15;;;;;;;15.90;10.27;;;2.90;99.70;;;;;;5106206;27;20505;-78
2021/01/30 02:13:47;;;;;;;15.45;9.73;;;2.80;99.50;;;;;;5092446;27;20066;-78
2021/01/30 02:16:43;;;;;;;17.42;14.02;;;2.70;99.60;;;;;;5092095;27;20084;-79
2021/01/30 02:19:28;;;;;;;15.05;9.98;;;2.50;99.40;;;;;;5101914;27;20035;-79
2021/01/30 02:22:17;;;;;;;14.07;10.35;;;2.40;99.60;;;;;;5091445;27;20521;-79
2021/01/30 02:24:58;;;;;;;17.95;11.10;;;2.50;99.40;;;;;;5109140;27;20378;-78
2021/01/30 02:28:00;;;;;;;17.33;11.50;;;2.40;99.40;;;;;;5089181;27;20126;-78
2021/01/30 02:30:38;;;;;;;18.85;11.75;;;2.40;99.10;;;;;;5127562;27;20035;-78
2021/01/30 02:33:17;;;;;;;16.88;10.55;;;2.20;99.20;;;;;;5087780;27;20530;-78
2021/01/30 02:36:20;;;;;;;17.95;10.40;;;2.30;99.50;;;;;;5125151;27;20035;-78
2021/01/30 02:38:54;;;;;;;20.60;12.52;;;2.30;99.40;;;;;;5123378;27;20600;-78
2021/01/30 02:41:21;;;;;;;24.38;16.30;;;2.20;99.30;;;;;;5105464;27;20042;-78
2021/01/30 02:43:47;;;;;;;20.33;13.40;;;2.20;99.40;;;;;;5107342;27;20031;-78
2021/01/30 02:46:24;;;;;;;28.75;18.27;;;2.20;99.50;;;;;;5077240;27;20104;-78
2021/01/30 02:48:51;;;;;;;31.48;22.45;;;2.20;99.40;;;;;;5088073;27;20035;-77
2021/01/30 02:51:22;;;;;;;35.55;21.00;;;2.10;99.60;;;;;;5093842;27;20886;-78
2021/01/30 02:53:53;;;;;;;33.90;21.05;;;2.00;99.70;;;;;;5108066;27;20034;-78
2021/01/30 02:56:19;;;;;;;34.03;19.27;;;2.00;99.70;;;;;;5089258;27;20047;-78
2021/01/30 02:58:53;;;;;;;30.23;16.60;;;1.90;99.80;;;;;;5105740;27;20027;-78
2021/01/30 03:01:19;;;;;;;37.35;21.80;;;2.00;99.90;;;;;;5096478;27;20050;-77
2021/01/30 03:03:44;;;;;;;37.42;20.85;;;2.00;99.80;;;;;;5086486;27;20023;-78
2021/01/30 03:06:17;;;;;;;39.40;22.67;;;2.00;99.70;;;;;;5092245;27;20479;-77
2021/01/30 03:08:49;;;;;;;42.00;24.90;;;2.10;99.70;;;;;;5098836;27;20034;-78
2021/01/30 03:11:18;;;;;;;39.63;24.30;;;2.00;99.60;;;;;;5087033;27;20031;-77
2021/01/30 03:13:58;;;;;;;42.15;24.65;;;1.90;99.80;;;;;;5102379;27;20034;-75
2021/01/30 03:16:27;;;;;;;40.83;24.77;;;1.80;99.80;;;;;;5088398;27;20074;-74
2021/01/30 03:19:01;;;;;;;40.80;25.55;;;1.80;99.90;;;;;;5107275;27;20509;-75
2021/01/30 03:21:26;;;;;;;43.13;25.52;;;1.70;99.80;;;;;;5077296;27;21709;-75
2021/01/30 03:23:52;;;;;;;38.40;23.20;;;1.70;99.80;;;;;;5089961;27;20032;-75
2021/01/30 03:26:19;;;;;;;39.03;23.25;;;1.60;99.70;;;;;;5089936;27;20451;-76
2021/01/30 03:28:45;;;;;;;41.10;24.55;;;1.60;99.60;;;;;;5090010;27;20228;-76
2021/01/30 03:31:11;;;;;;;37.28;22.30;;;1.50;99.40;;;;;;5095043;27;20426;-75
2021/01/30 03:33:36;;;;;;;39.88;25.02;;;1.40;99.50;;;;;;5088521;27;20040;-75
2021/01/30 03:36:02;;;;;;;34.63;20.55;;;1.30;99.50;;;;;;5108637;27;20054;-75
2021/01/30 03:38:27;;;;;;;34.58;21.20;;;1.30;99.50;;;;;;5076670;27;20055;-75
2021/01/30 03:40:53;;;;;;;32.28;18.55;;;1.30;99.50;;;;;;5089225;27;20030;-75
2021/01/30 03:43:18;;;;;;;34.13;19.13;;;1.30;99.50;;;;;;5109027;27;20033;-75
2021/01/30 03:45:44;;;;;;;30.88;18.38;;;1.20;99.50;;;;;;5105884;27;20643;-75
2021/01/30 03:48:10;;;;;;;30.70;19.55;;;1.20;99.80;;;;;;5105974;27;20034;-75
2021/01/30 03:50:35;;;;;;;34.45;18.55;;;1.20;99.40;;;;;;5075225;27;20038;-75
2021/01/30 03:53:04;;;;;;;28.77;16.48;;;1.20;99.40;;;;;;5088638;27;20023;-74
2021/01/30 03:55:29;;;;;;;27.63;17.23;;;1.20;99.50;;;;;;5103995;27;20043;-75
2021/01/30 03:57:55;;;;;;;31.33;20.02;;;1.20;99.40;;;;;;5089204;27;20394;-76
2021/01/30 04:00:22;;;;;;;28.63;17.85;;;1.20;99.40;;;;;;5105430;27;20405;-75
2021/01/30 04:02:47;;;;;;;28.92;17.88;;;1.20;99.60;;;;;;5099379;27;20031;-75
2021/01/30 04:05:15;;;;;;;28.48;17.48;;;1.20;99.50;;;;;;5091044;27;20022;-75
2021/01/30 04:07:43;;;;;;;29.30;17.48;;;1.10;99.40;;;;;;5087872;27;20023;-75
2021/01/30 04:10:10;;;;;;;29.55;19.00;;;1.10;99.60;;;;;;5090320;27;20043;-75
2021/01/30 04:12:35;;;;;;;27.73;18.50;;;1.10;99.60;;;;;;5101350;27;20023;-75
2021/01/30 04:15:01;;;;;;;24.98;16.52;;;1.10;99.60;;;;;;5076369;27;20034;-75
2021/01/30 04:17:26;;;;;;;29.40;19.55;;;1.10;99.60;;;;;;5085398;27;20565;-75
2021/01/30 04:19:52;;;;;;;25.10;17.65;;;1.00;99.60;;;;;;5106678;27;20410;-74
2021/01/30 04:22:18;;;;;;;23.55;16.80;;;0.90;99.70;;;;;;5105957;27;20038;-75
2021/01/30 04:24:44;;;;;;;26.70;16.88;;;0.90;99.70;;;;;;5088596;27;20140;-75
2021/01/30 04:27:11;;;;;;;26.33;16.60;;;1.00;99.70;;;;;;5103189;27;20039;-75
2021/01/30 04:29:36;;;;;;;24.10;15.23;;;1.00;99.60;;;;;;5090453;27;20022;-75
2021/01/30 04:32:02;;;;;;;26.40;17.20;;;1.00;99.70;;;;;;5106234;27;20023;-75
2021/01/30 04:34:27;;;;;;;24.23;16.35;;;1.00;99.70;;;;;;5104189;27;20020;-74
2021/01/30 04:36:53;;;;;;;22.60;14.77;;;1.00;99.70;;;;;;5106199;27;20510;-75
2021/01/30 04:39:18;;;;;;;25.50;16.25;;;1.00;99.70;;;;;;5101980;28;20028;-74
2021/01/30 04:42:04;;;;;;;27.10;17.00;;;1.00;99.70;;;;;;5087807;28;20038;-75
2021/01/30 04:44:56;;;;;;;27.80;17.17;;;0.90;99.70;;;;;;5109086;27;20038;-75
2021/01/30 04:47:32;;;;;;;28.10;16.67;;;0.90;99.70;;;;;;5095963;27;20068;-74
2021/01/30 04:50:12;;;;;;;29.70;21.20;;;1.00;99.70;;;;;;5106014;28;20084;-75
2021/01/30 04:53:24;;;;;;;31.25;20.02;;;1.00;99.70;;;;;;5104514;28;20049;-75
2021/01/30 04:55:56;;;;;;;30.27;19.30;;;0.90;99.50;;;;;;5097243;28;20038;-76
2021/01/30 04:58:49;;;;;;;33.17;20.90;;;0.80;99.70;;;;;;5122110;28;20173;-74
2021/01/30 05:01:28;;;;;;;32.90;19.65;;;0.90;99.70;;;;;;5097910;27;20028;-74
2021/01/30 05:04:03;;;;;;;31.30;18.17;;;0.90;99.70;;;;;;5087535;28;20030;-75
2021/01/30 05:06:34;;;;;;;36.15;19.67;;;0.90;99.70;;;;;;5102159;28;20570;-74
2021/01/30 05:09:01;;;;;;;35.97;21.80;;;0.90;99.70;;;;;;5123275;28;20049;-74
2021/01/30 05:11:28;;;;;;;33.75;21.73;;;0.90;99.70;;;;;;5102924;28;20492;-74
2021/01/30 05:13:57;;;;;;;26.75;17.35;;;0.80;99.60;;;;;;5106232;28;20019;-75
2021/01/30 05:16:29;;;;;;;30.65;18.73;;;0.90;99.80;;;;;;5087056;28;20394;-74
2021/01/30 05:18:58;;;;;;;31.20;22.08;;;0.80;99.70;;;;;;4399541;28;9999870;-76
2021/01/30 05:21:48;;;;;;;31.77;18.58;;;0.80;99.70;;;;;;5094296;28;20063;-75
2021/01/30 05:24:14;;;;;;;25.27;18.02;;;0.80;99.70;;;;;;5102345;28;20073;-75
2021/01/30 05:26:46;;;;;;;25.65;15.57;;;0.70;99.70;;;;;;5088633;28;20066;-75
2021/01/30 05:29:29;;;;;;;26.55;17.45;;;0.70;99.70;;;;;;5097989;28;20038;-74
2021/01/30 05:32:02;;;;;;;25.50;16.77;;;0.70;99.70;;;;;;5071487;28;20034;-74
2021/01/30 05:34:44;;;;;;;26.10;15.18;;;0.60;99.70;;;;;;5087730;27;20026;-75
2021/01/30 05:37:16;;;;;;;24.77;14.20;;;0.60;99.80;;;;;;5104838;28;20039;-75
2021/01/30 05:39:50;;;;;;;23.17;14.45;;;0.70;99.80;;;;;;5086465;28;20047;-75
2021/01/30 05:42:33;;;;;;;22.85;14.32;;;0.70;99.70;;;;;;5078889;27;20028;-74
2021/01/30 05:45:07;;;;;;;20.70;13.90;;;0.80;99.70;;;;;;5102816;28;20505;-75
2021/01/30 05:47:33;;;;;;;21.83;13.15;;;0.80;99.60;;;;;;5088833;28;20239;-76
2021/01/30 05:50:10;;;;;;;21.65;14.05;;;0.80;99.60;;;;;;5088112;28;20102;-75
2021/01/30 05:52:37;;;;;;;22.20;15.23;;;0.70;99.60;;;;;;5120032;28;20506;-75
2021/01/30 05:55:04;;;;;;;22.50;13.70;;;0.70;99.60;;;;;;5088304;28;20398;-74
2021/01/30 05:57:29;;;;;;;22.48;15.27;;;0.70;99.50;;;;;;5101724;28;20545;-74
2021/01/30 05:59:56;;;;;;;21.65;14.32;;;0.70;99.50;;;;;;5089983;28;20032;-74
2021/01/30 06:02:24;;;;;;;21.27;13.63;;;0.60;99.60;;;;;;5103783;27;20035;-75
2021/01/30 06:04:50;;;;;;;22.80;17.38;;;0.60;99.70;;;;;;5073413;27;20019;-75
2021/01/30 06:07:29;;;;;;;17.92;12.90;;;0.60;99.70;;;;;;5105627;27;20024;-75
2021/01/30 06:09:54;;;;;;;15.90;10.10;;;0.60;99.70;;;;;;5091767;27;20019;-75
2021/01/30 06:12:24;;;;;;;17.52;11.77;;;0.60;99.70;;;;;;5078582;27;20031;-76
2021/01/30 06:14:50;;;;;;;18.80;13.63;;;0.60;99.70;;;;;;5103759;27;20030;-75
2021/01/30 06:17:17;;;;;;;16.42;10.75;;;0.60;99.60;;;;;;5094655;27;20023;-75
2021/01/30 06:19:42;;;;;;;15.88;11.65;;;0.50;99.60;;;;;;5091418;27;20031;-75
2021/01/30 06:22:22;;;;;;;15.40;13.32;;;0.50;99.60;;;;;;5090523;27;20035;-75
2021/01/30 06:24:48;;;;;;;15.30;11.95;;;0.50;99.60;;;;;;5091248;27;20034;-74
2021/01/30 06:27:35;;;;;;;17.95;13.18;;;0.50;99.60;;;;;;5108545;27;20034;-75
2021/01/30 06:30:08;;;;;;;14.40;11.00;;;0.40;99.60;;;;;;5094072;27;20038;-74
2021/01/30 06:32:40;;;;;;;16.05;10.75;;;0.40;99.60;;;;;;5086220;27;20057;-76
2021/01/30 06:35:08;;;;;;;16.27;12.25;;;0.40;99.60;;;;;;5109360;27;20038;-75
2021/01/30 06:37:43;;;;;;;17.75;13.52;;;0.40;99.60;;;;;;5108006;27;20668;-75
2021/01/30 06:40:23;;;;;;;17.13;11.82;;;0.40;99.60;;;;;;5105435;27;20035;-75
2021/01/30 06:42:50;;;;;;;18.17;13.85;;;0.40;99.70;;;;;;5069696;27;20031;-75
2021/01/30 06:45:48;;;;;;;15.60;11.00;;;0.40;99.60;;;;;;5085521;27;20093;-75
2021/01/30 06:48:33;;;;;;;17.33;10.70;;;0.30;99.70;;;;;;5093639;27;20035;-75
2021/01/30 06:50:59;;;;;;;16.27;11.88;;;0.40;99.60;;;;;;5068672;27;20039;-76
2021/01/30 06:53:27;;;;;;;17.88;12.30;;;0.30;99.60;;;;;;5124376;27;20080;-75
2021/01/30 06:55:52;;;;;;;14.13;9.98;;;0.30;99.60;;;;;;5107536;27;20142;-75
2021/01/30 06:58:28;;;;;;;13.55;10.38;;;0.40;99.70;;;;;;5092517;27;20114;-75
2021/01/30 07:01:11;;;;;;;13.10;10.00;;;0.30;99.60;;;;;;5102506;27;20031;-75
2021/01/30 07:03:55;;;;;;;14.73;8.23;;;0.30;99.60;;;;;;5104771;27;20051;-75
2021/01/30 07:06:27;;;;;;;12.30;10.43;;;0.30;99.50;;;;;;5103125;27;20051;-75
2021/01/30 07:09:16;;;;;;;13.55;9.07;;;0.30;99.50;;;;;;5088410;27;20027;-74
2021/01/30 07:11:54;;;;;;;13.70;11.10;;;0.30;99.50;;;;;;5107407;27;20027;-75
2021/01/30 07:14:41;;;;;;;12.52;10.55;;;0.30;99.50;;;;;;5105923;27;20032;-74
2021/01/30 07:17:12;;;;;;;12.52;11.32;;;0.20;99.50;;;;;;5122645;27;20298;-74
2021/01/30 07:20:15;;;;;;;11.95;8.50;;;0.20;99.50;;;;;;5087851;27;20119;-75
2021/01/30 07:22:54;;;;;;;10.60;8.25;;;0.20;99.60;;;;;;5125126;27;20097;-75
2021/01/30 07:25:30;;;;;;;9.38;8.20;;;0.10;99.50;;;;;;5103699;27;20023;-76
2021/01/30 07:28:06;;;;;;;10.40;8.60;;;0.10;99.50;;;;;;5086177;27;20023;-75
2021/01/30 07:30:37;;;;;;;9.60;7.75;;;0.20;99.40;;;;;;5093470;27;20388;-75
2021/01/30 07:33:08;;;;;;;10.15;9.05;;;0.10;99.40;;;;;;5105030;27;20031;-75
2021/01/30 07:35:47;;;;;;;13.38;8.95;;;0.10;99.40;;;;;;5097472;27;20035;-75
2021/01/30 07:38:17;;;;;;;10.70;9.10;;;0.10;99.50;;;;;;5087988;27;20035;-74
2021/01/30 07:40:55;;;;;;;10.93;8.95;;;0.10;99.30;;;;;;5102527;27;20035;-74
2021/01/30 07:43:32;;;;;;;9.80;7.63;;;0.10;99.30;;;;;;5102582;27;20042;-75
2021/01/30 07:46:19;;;;;;;10.07;7.65;;;0.10;99.40;;;;;;5105057;27;20043;-74
2021/01/30 07:48:51;;;;;;;10.55;7.13;;;0.20;99.40;;;;;;5083877;27;20114;-74
2021/01/30 07:51:23;;;;;;;8.60;6.55;;;0.20;99.40;;;;;;5082153;27;20116;-76
2021/01/30 07:53:48;;;;;;;6.35;5.28;;;0.30;99.40;;;;;;5101301;27;20023;-75
2021/01/30 07:56:17;;;;;;;10.95;7.82;;;0.20;99.00;;;;;;5088252;27;20084;-74
2021/01/30 07:59:20;;;;;;;9.18;8.35;;;0.20;99.10;;;;;;5124317;27;20035;-74
2021/01/30 08:02:14;;;;;;;10.13;7.05;;;0.20;99.30;;;;;;5124020;27;20105;-74
2021/01/30 08:04:45;;;;;;;8.63;7.70;;;0.20;99.30;;;;;;5116507;27;20578;-75
2021/01/30 08:07:20;;;;;;;10.00;6.88;;;0.20;99.30;;;;;;5108989;27;20117;-74
2021/01/30 08:09:58;;;;;;;9.80;7.20;;;0.20;99.20;;;;;;5107131;27;20413;-75
2021/01/30 08:12:55;;;;;;;11.50;7.80;;;0.20;99.30;;;;;;5104111;27;20039;-74
2021/01/30 08:15:25;;;;;;;8.40;5.90;;;0.20;99.20;;;;;;5087836;27;20382;-75
2021/01/30 08:18:07;;;;;;;8.30;6.43;;;0.20;99.10;;;;;;5070425;27;20032;-75
2021/01/30 08:20:53;;;;;;;7.50;6.70;;;0.20;99.10;;;;;;5088552;27;20043;-76
2021/01/30 08:23:43;;;;;;;6.93;5.35;;;0.20;99.00;;;;;;5103873;27;20019;-74
2021/01/30 08:26:28;;;;;;;9.00;5.43;;;0.20;99.30;;;;;;5103684;27;20058;-75
2021/01/30 08:28:54;;;;;;;7.55;5.47;;;0.20;99.20;;;;;;5103743;27;20027;-74
2021/01/30 08:31:40;;;;;;;7.50;5.70;;;0.20;99.20;;;;;;5100636;28;20026;-75
2021/01/30 08:34:17;;;;;;;6.95;5.43;;;0.20;99.20;;;;;;5066421;27;20035;-76
2021/01/30 08:36:43;;;;;;;5.93;4.68;;;0.10;99.30;;;;;;5085075;27;20069;-76
2021/01/30 08:39:24;;;;;;;7.05;5.03;;;0.20;99.30;;;;;;5091551;27;20042;-76
2021/01/30 08:41:51;;;;;;;7.07;5.15;;;0.30;99.10;;;;;;5105042;27;20027;-75
2021/01/30 08:44:43;;;;;;;8.32;5.63;;;0.40;99.10;;;;;;5106553;27;20023;-75
2021/01/30 08:47:31;;;;;;;6.45;4.43;;;0.40;99.10;;;;;;5100544;27;20043;-75
2021/01/30 08:50:12;;;;;;;8.90;6.25;;;0.40;99.00;;;;;;5102250;28;20054;-75
2021/01/30 08:52:44;;;;;;;6.50;4.55;;;0.40;99.20;;;;;;5096108;28;20031;-76
2021/01/30 08:55:22;;;;;;;6.45;5.05;;;0.30;99.30;;;;;;5103696;28;20051;-75
2021/01/30 08:57:47;;;;;;;9.02;6.95;;;0.30;99.00;;;;;;5103255;28;20114;-75
2021/01/30 09:00:36;;;;;;;7.35;5.95;;;0.40;99.30;;;;;;5087081;28;20107;-76
2021/01/30 09:03:04;;;;;;;8.65;6.88;;;0.50;99.30;;;;;;5104695;28;20550;-76
2021/01/30 09:05:32;;;;;;;8.50;6.07;;;0.40;99.40;;;;;;5092376;28;20416;-75
2021/01/30 09:07:59;;;;;;;7.13;5.05;;;0.50;99.30;;;;;;5121208;28;20050;-75
2021/01/30 09:10:35;;;;;;;9.88;6.68;;;0.50;99.20;;;;;;5104582;28;20035;-76
2021/01/30 09:13:17;;;;;;;10.00;7.65;;;0.50;99.40;;;;;;5104478;28;20023;-76
2021/01/30 09:15:42;;;;;;;10.52;7.20;;;0.50;99.30;;;;;;5091684;28;20035;-75
2021/01/30 09:18:36;;;;;;;10.45;6.85;;;0.50;99.40;;;;;;5105546;28;20038;-76
2021/01/30 09:21:25;;;;;;;7.32;6.03;;;0.60;99.20;;;;;;5104494;28;20039;-75
2021/01/30 09:24:22;;;;;;;9.45;7.68;;;0.60;99.40;;;;;;5105298;28;20058;-74
2021/01/30 09:27:11;;;;;;;10.13;7.25;;;0.60;99.20;;;;;;5114082;28;20043;-75
2021/01/30 09:29:45;;;;;;;10.07;8.65;;;0.70;99.30;;;;;;5108627;28;20279;-75
2021/01/30 09:32:15;;;;;;;10.32;7.85;;;0.60;99.40;;;;;;5085812;28;20031;-74
2021/01/30 09:34:48;;;;;;;9.55;7.85;;;0.60;99.20;;;;;;5071140;28;20114;-74
2021/01/30 09:37:38;;;;;;;12.40;9.43;;;0.60;99.30;;;;;;5082889;28;20511;-75
2021/01/30 09:40:06;;;;;;;10.73;7.40;;;0.60;99.30;;;;;;5092727;27;20027;-75
2021/01/30 09:42:31;;;;;;;8.57;6.88;;;0.70;99.40;;;;;;5088940;27;20027;-76
2021/01/30 09:45:01;;;;;;;11.35;8.00;;;0.70;99.30;;;;;;5106587;27;20096;-76
2021/01/30 09:47:26;;;;;;;9.98;7.30;;;0.80;99.50;;;;;;5090727;27;20039;-75
2021/01/30 09:50:08;;;;;;;11.10;8.07;;;0.70;99.40;;;;;;5107018;27;20023;-75
2021/01/30 09:52:33;;;;;;;10.63;7.90;;;0.80;99.50;;;;;;5080305;27;20084;-75
2021/01/30 09:55:07;;;;;;;10.45;7.82;;;0.80;99.50;;;;;;5111233;27;20023;-75
2021/01/30 09:57:32;;;;;;;7.97;6.68;;;0.90;99.60;;;;;;5108371;27;20028;-75
2021/01/30 10:00:00;;;;;;;10.88;8.02;;;0.90;99.30;;;;;;5108556;27;20428;-75
2021/01/30 10:02:27;;;;;;;8.88;7.40;;;0.90;99.40;;;;;;5109331;27;20039;-75
2021/01/30 10:05:13;;;;;;;8.20;6.03;;;0.90;99.50;;;;;;5110492;27;20044;-75
2021/01/30 10:07:39;;;;;;;9.93;6.07;;;0.90;99.60;;;;;;5095708;27;20031;-74
2021/01/30 10:10:22;;;;;;;9.05;7.28;;;1.00;99.40;;;;;;5078130;27;20516;-74
2021/01/30 10:12:48;;;;;;;8.07;6.82;;;1.00;99.50;;;;;;5105551;27;20378;-75
2021/01/30 10:15:13;;;;;;;9.85;6.53;;;1.10;99.60;;;;;;5085813;27;20024;-75
2021/01/30 10:17:42;;;;;;;8.13;6.53;;;1.20;99.70;;;;;;5089421;27;20044;-75
2021/01/30 10:20:12;;;;;;;11.50;6.63;;;1.20;99.70;;;;;;5103889;27;20024;-74
2021/01/30 10:22:42;;;;;;;10.25;6.55;;;1.30;99.60;;;;;;5095477;27;20199;-73
2021/01/30 10:25:11;;;;;;;7.95;6.00;;;1.40;99.80;;;;;;5107981;27;20023;-75
2021/01/30 10:27:36;;;;;;;5.35;3.97;;;1.40;99.70;;;;;;5093750;27;20035;-74
2021/01/30 10:30:03;;;;;;;4.93;3.90;;;1.50;99.60;;;;;;5092685;27;20444;-74
2021/01/30 10:32:52;;;;;;;7.45;5.97;;;1.60;99.00;;;;;;5086342;27;20027;-74
2021/01/30 10:35:36;;;;;;;6.10;5.22;;;1.70;99.70;;;;;;5106051;27;20436;-75
2021/01/30 10:38:15;;;;;;;8.50;5.72;;;1.70;99.50;;;;;;5074406;27;20028;-74
2021/01/30 10:41:01;;;;;;;5.55;4.60;;;1.80;99.90;;;;;;5076458;27;20139;-75
2021/01/30 10:43:37;;;;;;;5.13;4.40;;;1.90;99.40;;;;;;5105473;27;20075;-75
2021/01/30 10:46:05;;;;;;;;;;;1.90;99.90;;;;;;5107903;27;20023;-75
2021/01/30 10:48:37;;;;;;;4.80;4.22;;;2.00;99.90;;;;;;5088844;27;20124;-75
2021/01/30 10:51:23;;;;;;;5.78;3.97;;;2.10;99.90;;;;;;5095922;27;20085;-75
2021/01/30 10:53:48;;;;;;;5.53;3.92;;;2.00;98.50;;;;;;5067413;27;20440;-74
2021/01/30 10:56:25;;;;;;;4.80;3.17;;;2.10;99.90;;;;;;5102067;27;20035;-74
2021/01/30 10:58:52;;;;;;;5.35;4.47;;;2.10;97.60;;;;;;5090044;27;20031;-75
2021/01/30 11:01:17;;;;;;;4.72;3.42;;;2.10;98.80;;;;;;5105807;27;20027;-75
2021/01/30 11:03:52;;;;;;;4.75;3.70;;;2.10;99.70;;;;;;5121196;27;20503;-74
2021/01/30 11:06:39;;;;;;;6.20;3.60;;;2.30;99.70;;;;;;5128988;27;20031;-74
2021/01/30 11:09:11;;;;;;;;;;;2.40;99.80;;;;;;5108007;27;20027;-74
2021/01/30 11:11:36;;;;;;;5.72;3.80;;;2.40;99.80;;;;;;5123140;27;19911;-75
2021/01/30 11:14:02;;;;;;;4.40;3.33;;;2.40;99.90;;;;;;5105388;27;20087;-74
2021/01/30 11:16:33;;;;;;;4.28;3.05;;;2.40;99.40;;;;;;5089178;27;20031;-74
2021/01/30 11:18:59;;;;;;;3.67;2.85;;;2.50;98.10;;;;;;5105900;27;20024;-74
2021/01/30 11:21:42;;;;;;;2.10;1.77;;;2.60;99.60;;;;;;5108454;27;20043;-74
2021/01/30 11:24:35;;;;;;;2.75;2.30;;;2.70;99.30;;;;;;5080430;27;20482;-75
2021/01/30 11:27:02;;;;;;;3.35;2.60;;;2.60;98.80;;;;;;5104569;27;20590;-74
2021/01/30 11:29:37;;;;;;;3.63;2.17;;;2.80;99.80;;;;;;5108806;27;20117;-74
2021/01/30 11:32:05;;;;;;;4.75;2.60;;;2.90;99.00;;;;;;5090326;27;20051;-75
2021/01/30 11:34:30;;;;;;;3.47;2.45;;;3.00;99.90;;;;;;5078566;27;20477;-74
2021/01/30 11:36:56;;;;;;;3.58;2.45;;;3.00;99.90;;;;;;5108219;27;20110;-75
2021/01/30 11:39:26;;;;;;;3.65;1.80;;;3.00;99.00;;;;;;5093054;27;20031;-74
2021/01/30 11:41:52;;;;;;;2.17;1.83;;;2.90;99.10;;;;;;5085848;27;20043;-74
2021/01/30 11:44:17;;;;;;;3.35;2.28;;;3.00;99.90;;;;;;5094282;27;20493;-74
2021/01/30 11:46:43;;;;;;;3.35;1.88;;;3.10;99.90;;;;;;5092655;27;20456;-75
2021/01/30 11:49:08;;;;;;;2.55;1.95;;;3.10;99.70;;;;;;5107154;27;20027;-75
2021/01/30 11:51:34;;;;;;;3.20;2.20;;;3.10;99.50;;;;;;5082875;27;20043;-74
2021/01/30 11:53:59;;;;;;;2.45;1.98;;;3.10;99.00;;;;;;5095421;27;20047;-74
2021/01/30 11:56:25;;;;;;;2.72;1.70;;;3.30;99.90;;;;;;5092468;27;20039;-75
2021/01/30 11:58:50;;;;;;;3.17;1.70;;;3.30;99.40;;;;;;5088512;27;20030;-75
2021/01/30 12:01:16;;;;;;;2.75;1.67;;;3.30;99.50;;;;;;5104982;27;20296;-74
2021/01/30 12:03:42;;;;;;;2.95;1.88;;;3.40;99.80;;;;;;5083488;27;20031;-75
2021/01/30 12:06:07;;;;;;;2.35;1.90;;;3.40;99.80;;;;;;5090598;27;20115;-75
2021/01/30 12:08:33;;;;;;;2.13;1.60;;;3.40;99.60;;;;;;5076931;27;20139;-74
2021/01/30 12:10:58;;;;;;;2.13;1.33;;;3.40;99.40;;;;;;5109102;27;20058;-74
2021/01/30 12:13:24;;;;;;;2.45;1.88;;;3.50;99.20;;;;;;5105430;27;20408;-75
2021/01/30 12:15:50;;;;;;;2.72;2.28;;;3.50;99.90;;;;;;5105287;27;20034;-79
2021/01/30 12:18:16;;;;;;;2.72;1.90;;;3.60;99.90;;;;;;5071341;27;20080;-75
2021/01/30 12:20:43;;;;;;;2.60;1.70;;;3.60;99.90;;;;;;5088782;27;20046;-76
2021/01/30 12:23:10;;;;;;;2.00;1.70;;;3.70;99.90;;;;;;5073299;27;20043;-75
2021/01/30 12:25:35;;;;;;;1.75;1.58;;;3.70;99.90;;;;;;5082094;27;20083;-75
2021/01/30 12:28:01;;;;;;;2.70;1.95;;;3.70;98.90;;;;;;5104970;27;20433;-75
2021/01/30 12:30:29;;;;;;;3.70;1.83;;;3.60;99.20;;;;;;5103780;27;20028;-75
2021/01/30 12:32:55;;;;;;;3.38;1.52;;;3.60;99.20;;;;;;5086054;27;20069;-77
2021/01/30 12:35:22;;;;;;;2.05;1.40;;;3.80;99.90;;;;;;5104131;28;20385;-76
2021/01/30 12:37:47;;;;;;;2.37;1.50;;;3.80;98.80;;;;;;4400222;27;10000528;-75
2021/01/30 12:40:13;;;;;;;4.00;1.77;;;3.90;99.80;;;;;;5084776;27;20261;-76
2021/01/30 12:42:39;;;;;;;3.67;2.15;;;3.90;99.90;;;;;;5085450;27;20475;-76
2021/01/30 12:45:05;;;;;;;2.60;1.70;;;3.90;99.90;;;;;;5102808;27;20076;-75
2021/01/30 12:47:31;;;;;;;2.45;1.40;;;4.00;99.90;;;;;;5087420;28;20035;-75
2021/01/30 12:49:56;;;;;;;2.80;1.90;;;4.00;99.90;;;;;;5086228;28;20510;-75
2021/01/30 12:52:25;;;;;;;3.35;1.80;;;4.00;99.90;;;;;;5085517;27;20033;-77
2021/01/30 12:54:51;;;;;;;1.80;1.25;;;3.80;98.40;;;;;;5062469;28;20023;-76
2021/01/30 12:57:17;;;;;;;3.38;2.15;;;4.00;99.90;;;;;;5102336;28;20391;-74
2021/01/30 12:59:43;;;;;;;2.70;1.70;;;4.10;99.90;;;;;;5086746;28;20081;-74
2021/01/30 13:02:08;;;;;;;2.33;1.63;;;4.20;99.70;;;;;;5122922;28;20039;-74
2021/01/30 13:04:34;;;;;;;3.95;1.55;;;4.20;99.70;;;;;;5079926;28;20062;-74
2021/01/30 13:06:59;;;;;;;3.55;1.95;;;4.30;99.90;;;;;;5106193;28;20033;-76
2021/01/30 13:09:25;;;;;;;2.47;1.75;;;4.30;99.70;;;;;;5100816;28;20031;-76